Time;durP1;ratioP1;P1;durP2;ratioP2;P2;SDS_P1;SDS_P2;PMS_P1;PMS_P2;Temp;Humidity;BMP_temperature;BMP_pressure;BME280_temperature;BME280_humidity;BME280_pressure;Samples;Min_cycle;Max_cycle;Signal;HPM_P1;HPM_P2
2022/08/24 00:00:47;;;;;;;8.07;4.18;;;28.30;32.80;;;;;;21008426;28;20056;-57
2022/08/24 00:10:48;;;;;;;7.15;4.00;;;28.10;33.70;;;;;;21007623;28;20194;-58
2022/08/24 00:20:50;;;;;;;6.22;3.85;;;28.10;33.60;;;;;;21006406;28;20044;-58
2022/08/24 00:30:52;;;;;;;4.80;3.53;;;28.10;33.60;;;;;;21004269;28;20056;-59
2022/08/24 00:40:54;;;;;;;6.70;3.95;;;28.10;33.80;;;;;;21005541;28;20074;-58
2022/08/24 00:51:01;;;;;;;8.75;4.35;;;28.00;34.00;;;;;;21004919;28;20163;-58
2022/08/24 01:01:05;;;;;;;6.82;3.63;;;27.80;34.50;;;;;;21004571;28;20052;-57
2022/08/24 01:11:11;;;;;;;8.40;3.90;;;27.90;34.80;;;;;;21004203;28;20048;-56
2022/08/24 01:21:23;;;;;;;5.43;3.67;;;27.70;35.20;;;;;;21002750;28;20044;-57
2022/08/24 01:31:26;;;;;;;6.65;3.67;;;27.60;34.90;;;;;;21002154;28;20423;-58
2022/08/24 01:41:30;;;;;;;7.03;2.70;;;27.50;35.00;;;;;;20999989;28;20503;-57
2022/08/24 01:51:33;;;;;;;3.53;2.65;;;27.30;35.00;;;;;;20998103;28;20088;-56
2022/08/24 02:01:39;;;;;;;7.80;3.20;;;27.10;35.50;;;;;;20998360;28;20519;-58
2022/08/24 02:11:57;;;;;;;7.20;3.03;;;27.10;35.90;;;;;;20997823;28;20055;-57
2022/08/24 02:22:00;;;;;;;7.75;3.47;;;27.00;35.80;;;;;;20997855;28;20146;-57
2022/08/24 02:32:05;;;;;;;5.97;2.85;;;26.90;36.10;;;;;;20996303;28;20052;-57
2022/08/24 02:42:07;;;;;;;3.88;3.05;;;26.60;36.80;;;;;;20996139;28;20493;-57
2022/08/24 02:52:09;;;;;;;;;;;26.40;37.10;;;;;;20993350;28;20186;-57
2022/08/24 03:02:11;;;;;;;5.70;2.90;;;26.20;37.30;;;;;;20995165;28;20340;-61
2022/08/24 03:12:12;;;;;;;7.53;2.95;;;26.10;37.60;;;;;;20995520;28;20548;-59
2022/08/24 03:22:14;;;;;;;8.43;2.97;;;26.10;38.10;;;;;;20994021;28;20049;-57
2022/08/24 03:32:16;;;;;;;7.93;2.78;;;26.00;38.40;;;;;;20994961;28;20129;-58
2022/08/24 03:42:19;;;;;;;4.93;2.63;;;25.90;38.90;;;;;;20993088;28;20515;-57
2022/08/24 03:52:22;;;;;;;6.97;3.30;;;25.90;39.40;;;;;;20993663;28;20044;-57
2022/08/24 04:02:23;;;;;;;6.05;3.00;;;26.00;39.60;;;;;;20994086;28;20572;-57
2022/08/24 04:12:26;;;;;;;4.47;2.85;;;26.10;39.80;;;;;;21008002;28;20416;-57
2022/08/24 04:22:30;;;;;;;6.40;2.58;;;26.20;40.60;;;;;;21006039;28;20044;-57
2022/08/24 04:32:34;;;;;;;4.63;2.53;;;26.40;41.50;;;;;;21006783;28;20412;-57
2022/08/24 04:42:36;;;;;;;7.25;2.65;;;26.40;43.70;;;;;;21004946;28;20061;-56
2022/08/24 04:52:38;;;;;;;6.80;2.20;;;26.40;45.10;;;;;;21004129;28;20059;-56
2022/08/24 05:02:39;;;;;;;7.72;3.00;;;26.40;45.10;;;;;;21003216;28;20045;-57
2022/08/24 05:12:42;;;;;;;;;;;26.40;46.10;;;;;;21004388;28;20464;-57
2022/08/24 05:22:44;;;;;;;6.22;2.42;;;26.40;46.50;;;;;;21001288;28;20011;-57
2022/08/24 05:32:46;;;;;;;7.15;3.33;;;26.30;47.80;;;;;;20999413;28;20056;-56
2022/08/24 05:42:48;;;;;;;5.38;2.30;;;26.20;48.20;;;;;;21000946;28;20048;-57
2022/08/24 05:52:49;;;;;;;;;;;26.30;48.50;;;;;;20999565;28;20052;-57
2022/08/24 06:02:51;;;;;;;5.37;2.40;;;26.20;48.40;;;;;;20999917;28;19921;-56
2022/08/24 06:12:53;;;;;;;7.07;2.70;;;26.30;49.60;;;;;;20997698;28;20091;-56
2022/08/24 06:22:55;;;;;;;;;;;26.30;50.70;;;;;;20997425;28;20060;-58
2022/08/24 06:32:59;;;;;;;5.35;2.60;;;26.30;50.80;;;;;;20997713;28;19920;-57
2022/08/24 06:43:03;;;;;;;10.45;2.70;;;26.40;51.80;;;;;;20996824;28;20493;-57
2022/08/24 06:53:04;;;;;;;10.77;2.67;;;26.40;52.00;;;;;;20996605;28;20500;-57
2022/08/24 07:03:06;;;;;;;9.70;2.72;;;26.60;52.00;;;;;;20995812;28;20056;-56
2022/08/24 07:13:10;;;;;;;6.43;3.15;;;26.70;51.20;;;;;;20994862;28;20078;-57
2022/08/24 07:23:13;;;;;;;7.07;2.50;;;27.00;50.40;;;;;;20994797;28;20044;-56
2022/08/24 07:33:15;;;;;;;7.28;2.80;;;27.30;49.30;;;;;;20995217;28;20540;-58
2022/08/24 07:43:19;;;;;;;8.80;3.33;;;27.70;48.60;;;;;;21005671;28;20166;-57
2022/08/24 07:53:22;;;;;;;7.05;2.72;;;28.00;47.80;;;;;;21008991;28;20056;-58
2022/08/24 08:03:26;;;;;;;9.65;3.20;;;28.20;46.90;;;;;;21009225;28;20552;-58
2022/08/24 08:13:28;;;;;;;11.20;2.90;;;28.30;46.40;;;;;;21007624;28;20059;-57
2022/08/24 08:33:51;;;;;;;12.93;4.38;;;28.70;45.30;;;;;;21005776;28;20132;-57
2022/08/24 08:44:02;;;;;;;10.80;3.50;;;28.70;45.30;;;;;;21005089;28;20098;-57
2022/08/24 08:54:23;;;;;;;;;;;28.60;45.10;;;;;;21002156;28;20436;-58
2022/08/24 09:04:43;;;;;;;10.70;3.07;;;28.60;44.70;;;;;;21003732;28;19921;-57
2022/08/24 09:15:06;;;;;;;8.60;2.97;;;28.70;44.70;;;;;;21002597;28;20057;-58
2022/08/24 09:25:53;;;;;;;7.85;3.20;;;28.80;44.60;;;;;;21002154;28;20049;-57
2022/08/24 09:36:08;;;;;;;10.30;2.90;;;29.50;42.30;;;;;;20998855;28;20102;-57
2022/08/24 09:46:16;;;;;;;10.50;3.50;;;29.60;40.70;;;;;;20999799;28;20084;-57
2022/08/24 09:56:45;;;;;;;10.45;3.53;;;29.60;41.50;;;;;;20999778;28;20102;-58
2022/08/24 10:07:17;;;;;;;7.47;3.22;;;29.90;40.70;;;;;;20997835;28;20075;-57
2022/08/24 10:17:38;;;;;;;9.27;3.50;;;30.00;40.10;;;;;;20995992;28;20053;-56
2022/08/24 10:28:19;;;;;;;9.50;3.15;;;30.20;39.50;;;;;;20996017;28;20044;-56
2022/08/24 10:49:21;;;;;;;7.20;4.10;;;30.50;37.80;;;;;;20995148;28;20059;-57
2022/08/24 10:59:50;;;;;;;6.63;3.10;;;30.50;37.80;;;;;;20995221;28;20052;-58
2022/08/24 11:09:56;;;;;;;4.95;3.20;;;30.60;37.90;;;;;;20994271;28;20055;-57
2022/08/24 11:19:58;;;;;;;14.45;3.72;;;30.60;37.30;;;;;;20993381;28;20114;-59
2022/08/24 11:30:10;;;;;;;9.25;3.00;;;30.90;37.10;;;;;;20993809;28;20063;-57
2022/08/24 11:40:14;;;;;;;11.13;4.40;;;31.10;36.40;;;;;;20993052;28;20079;-58
2022/08/24 11:50:38;;;;;;;7.50;3.00;;;31.40;34.70;;;;;;20994425;28;20087;-58
2022/08/24 12:01:03;;;;;;;5.93;2.80;;;31.80;33.70;;;;;;20993497;28;20049;-58
2022/08/24 12:11:35;;;;;;;10.02;4.05;;;32.10;32.90;;;;;;20991944;28;20049;-58
2022/08/24 12:21:44;;;;;;;12.63;4.90;;;32.50;30.00;;;;;;20987591;28;20148;-57
2022/08/24 12:31:51;;;;;;;10.63;4.00;;;32.50;29.90;;;;;;21007542;28;20084;-58
2022/08/24 12:42:18;;;;;;;8.60;3.10;;;32.60;30.00;;;;;;21005259;28;20080;-57
2022/08/24 12:53:06;;;;;;;5.15;3.00;;;33.10;28.00;;;;;;21004887;28;20476;-58
2022/08/24 13:03:22;;;;;;;11.05;4.68;;;33.20;28.50;;;;;;20830078;28;20064;-57
2022/08/24 13:13:40;;;;;;;8.05;3.03;;;33.50;28.30;;;;;;20828529;28;20053;-58
2022/08/24 13:23:42;;;;;;;6.28;2.90;;;33.60;27.50;;;;;;20827959;28;20052;-57
2022/08/24 13:33:49;;;;;;;8.13;3.38;;;33.50;28.10;;;;;;20898758;28;20508;-58
2022/08/24 13:44:05;;;;;;;8.70;3.65;;;33.70;27.50;;;;;;20999256;28;20077;-58
2022/08/24 13:54:48;;;;;;;5.50;3.15;;;34.00;26.70;;;;;;20999409;28;20125;-58
2022/08/24 14:05:10;;;;;;;5.43;3.05;;;34.20;25.70;;;;;;20825217;28;20045;-58
2022/08/24 14:17:50;;;;;;;6.75;2.80;;;34.40;24.70;;;;;;20823641;28;20059;-59
2022/08/24 14:26:33;;;;;;;7.70;2.80;;;34.60;23.90;;;;;;20579526;28;20057;-57
2022/08/24 14:36:58;;;;;;;10.63;2.60;;;34.50;23.80;;;;;;20742231;28;20054;-59
2022/08/24 14:47:08;;;;;;;7.45;3.08;;;34.70;23.80;;;;;;20821173;28;20053;-58
2022/08/24 14:57:34;;;;;;;9.43;3.40;;;34.70;24.50;;;;;;20983752;28;20053;-58
2022/08/24 15:07:36;;;;;;;7.32;3.42;;;34.80;24.30;;;;;;20994487;28;20541;-58
2022/08/24 15:17:53;;;;;;;7.00;3.25;;;35.00;24.30;;;;;;20994208;28;20102;-58
2022/08/24 15:28:26;;;;;;;8.13;3.13;;;34.90;24.40;;;;;;20993906;28;20052;-58
2022/08/24 15:38:27;;;;;;;6.15;2.88;;;34.60;24.90;;;;;;20994019;28;20496;-58
2022/08/24 15:48:30;;;;;;;8.20;2.90;;;34.30;25.20;;;;;;20993850;28;20142;-59
2022/08/24 15:58:34;;;;;;;4.20;2.72;;;34.40;25.00;;;;;;20993674;28;20119;-58
2022/08/24 16:08:57;;;;;;;5.00;3.00;;;34.20;25.20;;;;;;21008059;28;20130;-59
2022/08/24 16:19:00;;;;;;;7.70;3.33;;;34.20;25.30;;;;;;21007099;28;20041;-59
2022/08/24 16:29:02;;;;;;;6.15;3.17;;;34.60;25.10;;;;;;21006990;28;20053;-59
2022/08/24 16:39:04;;;;;;;7.57;2.53;;;34.80;24.10;;;;;;21006577;28;20048;-58
2022/08/24 16:49:06;;;;;;;10.48;3.60;;;34.80;23.70;;;;;;21004260;28;20504;-59
2022/08/24 16:59:23;;;;;;;8.48;2.40;;;34.80;23.00;;;;;;21002987;28;20044;-58
2022/08/24 17:09:24;;;;;;;10.43;3.40;;;34.70;22.90;;;;;;21001675;28;20063;-57
2022/08/24 17:19:29;;;;;;;6.50;3.35;;;34.60;23.00;;;;;;21002602;28;20493;-58
2022/08/24 17:29:31;;;;;;;8.82;6.75;;;34.70;23.00;;;;;;21000849;28;20102;-57
2022/08/24 17:39:33;;;;;;;12.23;3.03;;;34.60;23.40;;;;;;20999498;28;20059;-57
2022/08/24 17:49:35;;;;;;;6.80;2.80;;;34.50;23.20;;;;;;20999807;28;20091;-59
2022/08/24 17:59:37;;;;;;;10.93;5.57;;;34.40;23.50;;;;;;20998818;28;20045;-56
2022/08/24 18:09:47;;;;;;;7.97;3.13;;;34.20;23.50;;;;;;20999469;28;20055;-57
2022/08/24 18:19:51;;;;;;;7.13;3.03;;;34.10;24.00;;;;;;20997354;28;20079;-58
2022/08/24 18:29:54;;;;;;;8.88;3.05;;;33.90;24.20;;;;;;20995457;28;20052;-58
2022/08/24 18:39:56;;;;;;;7.43;3.22;;;33.70;24.10;;;;;;20995397;28;20056;-57
2022/08/24 18:49:57;;;;;;;10.05;3.85;;;33.60;23.80;;;;;;20994830;28;20058;-57
2022/08/24 18:59:59;;;;;;;6.43;3.20;;;33.40;24.10;;;;;;20995417;28;20127;-57
2022/08/24 19:10:03;;;;;;;12.13;4.70;;;33.10;24.30;;;;;;20994132;28;20076;-58
2022/08/24 19:20:06;;;;;;;10.25;4.75;;;32.80;25.10;;;;;;20993984;28;20098;-58
2022/08/24 19:30:09;;;;;;;8.68;4.13;;;32.60;25.40;;;;;;20993242;28;20471;-59
2022/08/24 19:40:11;;;;;;;6.70;4.20;;;32.50;25.80;;;;;;21005472;28;20055;-59
2022/08/24 19:50:13;;;;;;;8.05;4.05;;;32.30;26.40;;;;;;21008959;28;20117;-57
2022/08/24 20:00:18;;;;;;;7.45;4.55;;;32.20;26.90;;;;;;21008527;28;20095;-59
2022/08/24 20:10:21;;;;;;;7.93;4.53;;;32.10;27.10;;;;;;21007520;28;20048;-59
2022/08/24 20:20:26;;;;;;;5.68;3.35;;;32.10;27.00;;;;;;21007304;28;20044;-60
2022/08/24 20:30:28;;;;;;;9.25;4.05;;;31.80;27.00;;;;;;21006115;28;20140;-59
2022/08/24 20:40:31;;;;;;;5.90;3.72;;;31.70;27.20;;;;;;21005809;28;20066;-59
2022/08/24 20:50:33;;;;;;;6.68;2.85;;;31.70;27.30;;;;;;21005115;28;20056;-58
2022/08/24 21:00:39;;;;;;;9.18;3.42;;;31.50;27.10;;;;;;21004207;28;20102;-59
2022/08/24 21:10:41;;;;;;;5.10;3.60;;;31.50;27.30;;;;;;21004475;28;20059;-59
2022/08/24 21:20:44;;;;;;;6.25;3.55;;;31.30;27.40;;;;;;21002927;28;20049;-60
2022/08/24 21:30:46;;;;;;;6.25;3.55;;;31.10;27.80;;;;;;21002765;28;20106;-59
2022/08/24 21:40:49;;;;;;;7.35;3.42;;;31.10;28.00;;;;;;21002607;28;20087;-60
2022/08/24 21:50:52;;;;;;;7.35;3.22;;;30.90;28.10;;;;;;21002520;28;20049;-60
2022/08/24 22:00:54;;;;;;;6.43;4.10;;;30.80;28.20;;;;;;21000897;28;20549;-59
2022/08/24 22:10:56;;;;;;;11.65;3.55;;;30.60;28.80;;;;;;20999411;28;20539;-59
2022/08/24 22:20:57;;;;;;;18.38;13.68;;;30.40;29.30;;;;;;20998829;28;20044;-58
2022/08/24 22:30:59;;;;;;;15.85;10.95;;;30.20;29.90;;;;;;20997483;28;20063;-59
2022/08/24 22:41:01;;;;;;;35.25;26.60;;;30.00;30.20;;;;;;20997635;28;20127;-58
2022/08/24 22:51:07;;;;;;;8.63;5.60;;;29.90;30.70;;;;;;20996271;28;20566;-59
2022/08/24 23:01:09;;;;;;;8.52;4.30;;;29.80;30.40;;;;;;20995557;28;20561;-58
2022/08/24 23:11:11;;;;;;;6.93;4.35;;;29.80;30.50;;;;;;20993576;28;20052;-58
2022/08/24 23:21:13;;;;;;;19.08;6.80;;;29.80;30.80;;;;;;20994795;28;20550;-58
2022/08/24 23:31:17;;;;;;;9.77;6.18;;;29.70;31.10;;;;;;20995188;28;20060;-59
2022/08/24 23:41:22;;;;;;;12.57;5.25;;;29.60;31.70;;;;;;20993366;28;20044;-58
2022/08/24 23:51:24;;;;;;;8.27;4.35;;;29.40;32.00;;;;;;20993932;28;20404;-58
